Time;durP1;ratioP1;P1;durP2;ratioP2;P2;SDS_P1;SDS_P2;PMS_P1;PMS_P2;Temp;Humidity;BMP_temperature;BMP_pressure;BME280_temperature;BME280_humidity;BME280_pressure;Samples;Min_cycle;Max_cycle;Signal;HPM_P1;HPM_P2
2022/06/30 00:00:47;;;;;;;11.00;9.90;;;;;;;20.59;85.98;96480.92;106675;1284;107734;-81
2022/06/30 00:03:19;;;;;;;10.90;9.40;;;;;;;20.55;86.70;96482.87;106530;1282;120068;-81
2022/06/30 00:05:51;;;;;;;12.30;9.00;;;;;;;20.52;86.86;96479.70;106292;1284;92127;-81
2022/06/30 00:08:22;;;;;;;12.50;8.90;;;;;;;20.49;86.81;96476.95;106415;1281;126813;-80
2022/06/30 00:10:54;;;;;;;10.50;9.40;;;;;;;20.43;86.56;96471.92;106368;1282;148871;-80
2022/06/30 00:13:25;;;;;;;12.30;10.10;;;;;;;20.30;86.96;96471.89;106433;1284;118207;-81
2022/06/30 00:15:59;;;;;;;10.20;8.90;;;;;;;20.29;87.29;96472.39;106361;1284;190195;-80
2022/06/30 00:18:32;;;;;;;10.90;8.40;;;;;;;20.31;87.30;96466.66;106445;1281;100142;-80
2022/06/30 00:21:04;;;;;;;11.40;8.20;;;;;;;20.35;87.30;96468.23;106456;1284;112775;-80
2022/06/30 00:23:38;;;;;;;12.20;9.50;;;;;;;20.33;87.03;96464.48;104980;1284;1828047;-80
2022/06/30 00:26:10;;;;;;;13.00;9.80;;;;;;;20.21;87.18;96467.94;106467;1284;95313;-80
2022/06/30 00:28:41;;;;;;;10.80;9.60;;;;;;;20.25;87.55;96468.02;106347;1284;97805;-80
2022/06/30 00:31:13;;;;;;;13.60;9.60;;;;;;;20.15;87.54;96466.32;106422;1284;124327;-80
2022/06/30 00:33:44;;;;;;;10.40;9.10;;;;;;;20.03;87.81;96466.84;106546;1282;95021;-80
2022/06/30 00:36:16;;;;;;;10.20;8.90;;;;;;;19.97;88.47;96465.21;106535;1284;80319;-80
2022/06/30 00:38:49;;;;;;;10.10;9.10;;;;;;;20.01;88.77;96468.10;106442;1281;104583;-80
2022/06/30 00:41:21;;;;;;;10.40;9.40;;;;;;;20.12;88.93;96471.77;106400;1281;112865;-80
2022/06/30 00:43:53;;;;;;;12.20;10.30;;;;;;;20.11;88.75;96468.05;106512;1284;97416;-80
2022/06/30 00:46:24;;;;;;;14.00;11.30;;;;;;;20.11;88.91;96467.29;106357;1284;124935;-80
2022/06/30 00:48:56;;;;;;;12.60;9.90;;;;;;;20.19;89.22;96464.66;106460;1281;112273;-80
2022/06/30 00:51:28;;;;;;;12.70;10.00;;;;;;;20.25;89.25;96466.33;106123;1284;110884;-80
2022/06/30 00:54:02;;;;;;;11.90;9.50;;;;;;;20.31;89.11;96462.21;106532;1284;118530;-80
2022/06/30 00:56:35;;;;;;;10.60;9.20;;;;;;;20.28;88.74;96465.42;106489;1284;88279;-80
2022/06/30 00:59:08;;;;;;;10.50;8.80;;;;;;;20.18;89.02;96468.02;106381;1284;139448;-80
2022/06/30 01:01:43;;;;;;;12.50;10.20;;;;;;;20.17;89.29;96468.00;106564;1281;98948;-80
2022/06/30 01:04:16;;;;;;;12.00;10.10;;;;;;;20.21;89.43;96463.39;106686;1284;89613;-80
2022/06/30 01:06:49;;;;;;;11.40;9.80;;;;;;;20.21;89.56;96465.92;106562;1281;123935;-80
2022/06/30 01:14:59;;;;;;;14.80;9.70;;;;;;;20.29;90.11;96469.24;106466;1284;115903;-80
2022/06/30 01:17:30;;;;;;;12.40;9.40;;;;;;;20.27;90.04;96467.19;106515;1284;117143;-81
2022/06/30 01:20:02;;;;;;;11.80;9.50;;;;;;;20.28;90.19;96460.50;106307;1284;109444;-81
2022/06/30 01:22:36;;;;;;;9.30;8.50;;;;;;;20.27;90.69;96466.77;106565;1283;94990;-81
2022/06/30 01:25:12;;;;;;;9.40;8.50;;;;;;;20.21;90.67;96470.08;106518;1284;113153;-80
2022/06/30 01:27:44;;;;;;;8.60;7.80;;;;;;;20.11;90.71;96468.44;106788;1284;99261;-80
2022/06/30 01:30:16;;;;;;;9.30;8.20;;;;;;;20.03;91.22;96471.14;106623;1284;110796;-81
2022/06/30 01:32:47;;;;;;;9.30;8.40;;;;;;;19.97;91.41;96467.31;106721;1284;107144;-80
2022/06/30 01:35:19;;;;;;;11.50;8.90;;;;;;;19.89;91.79;96469.67;106365;1284;135712;-80
2022/06/30 01:37:53;;;;;;;8.60;7.70;;;;;;;19.85;91.80;96470.34;106378;1281;105522;-80
2022/06/30 01:40:30;;;;;;;9.50;8.10;;;;;;;19.83;92.00;96468.17;105194;1283;1862899;-80
2022/06/30 01:43:01;;;;;;;12.00;9.20;;;;;;;19.79;92.01;96466.31;106942;1283;77504;-80
2022/06/30 01:45:33;;;;;;;12.00;10.20;;;;;;;19.79;92.66;96463.69;107069;1284;100558;-81
2022/06/30 01:48:08;;;;;;;9.50;8.50;;;;;;;19.86;93.13;96462.66;106520;1282;115838;-80
2022/06/30 01:50:40;;;;;;;10.10;8.60;;;;;;;19.92;93.20;96461.36;106621;1281;110063;-81
2022/06/30 01:53:12;;;;;;;10.20;9.20;;;;;;;19.94;92.97;96460.20;106447;1284;130524;-81
2022/06/30 01:55:44;;;;;;;11.00;8.90;;;;;;;19.96;92.79;96460.02;107163;1282;42207;-81
2022/06/30 01:58:18;;;;;;;10.90;9.20;;;;;;;19.93;92.50;96458.10;106771;1284;218137;-80
2022/06/30 02:00:50;;;;;;;11.10;9.00;;;;;;;19.91;92.43;96451.51;106970;1284;93187;-80
2022/06/30 02:03:21;;;;;;;11.40;9.50;;;;;;;19.90;92.18;96456.30;106833;1284;140916;-80
2022/06/30 02:05:53;;;;;;;11.00;9.90;;;;;;;19.92;92.35;96454.14;106661;1284;152641;-81
2022/06/30 02:08:24;;;;;;;14.20;9.60;;;;;;;19.99;92.56;96456.50;106835;1284;72386;-80
2022/06/30 02:10:55;;;;;;;11.90;10.30;;;;;;;20.05;92.52;96457.75;106656;1284;146846;-81
2022/06/30 02:13:26;;;;;;;14.10;11.80;;;;;;;20.07;92.40;96456.48;106811;1284;122383;-81
2022/06/30 02:15:58;;;;;;;14.20;11.30;;;;;;;20.05;92.23;96456.05;106835;1284;139622;-81
2022/06/30 02:18:30;;;;;;;13.30;11.60;;;;;;;20.04;92.24;96455.11;106951;1284;98241;-81
2022/06/30 02:21:01;;;;;;;13.10;10.90;;;;;;;20.02;91.95;96457.84;106358;1283;136541;-81
2022/06/30 02:23:32;;;;;;;13.20;10.90;;;;;;;20.00;91.82;96453.31;106535;1284;108264;-81
2022/06/30 02:26:04;;;;;;;13.70;11.50;;;;;;;19.98;91.66;96452.52;106428;1284;104062;-81
2022/06/30 02:28:35;;;;;;;12.40;11.00;;;;;;;19.87;91.62;96450.33;106238;1284;118833;-81
2022/06/30 02:31:07;;;;;;;13.40;10.30;;;;;;;19.77;91.82;96448.10;104966;1284;1960448;-81
2022/06/30 02:33:38;;;;;;;12.50;10.60;;;;;;;19.70;92.21;96446.77;106382;1284;156286;-81
2022/06/30 02:36:10;;;;;;;10.50;9.50;;;;;;;19.69;92.10;96451.47;106316;1284;162854;-80
2022/06/30 02:38:42;;;;;;;10.50;9.40;;;;;;;19.73;92.19;96456.98;104717;1284;1939973;-80
2022/06/30 02:41:13;;;;;;;12.80;10.50;;;;;;;19.76;92.29;96455.09;106487;1284;95944;-81
2022/06/30 02:43:48;;;;;;;12.70;11.40;;;;;;;19.79;92.82;96454.94;106408;1284;132521;-81
2022/06/30 02:46:20;;;;;;;10.70;9.70;;;;;;;19.85;92.68;96455.34;106439;1284;132126;-81
2022/06/30 02:48:52;;;;;;;13.30;11.00;;;;;;;19.83;91.93;96453.66;106336;1284;111813;-80
2022/06/30 02:51:23;;;;;;;11.90;10.30;;;;;;;19.66;91.89;96454.55;106407;1284;163740;-80
2022/06/30 02:53:54;;;;;;;11.20;10.10;;;;;;;19.69;92.38;96457.32;106348;1284;99451;-80
2022/06/30 02:56:28;;;;;;;11.70;10.00;;;;;;;19.76;92.43;96457.63;106409;1284;121112;-80
2022/06/30 02:59:00;;;;;;;10.90;9.80;;;;;;;19.84;92.33;96461.84;104722;1284;2069900;-80
2022/06/30 03:01:31;;;;;;;11.30;10.20;;;;;;;19.77;91.40;96460.26;106541;1284;105881;-80
2022/06/30 03:04:04;;;;;;;11.40;10.00;;;;;;;19.65;91.44;96460.36;106444;1284;107794;-80
2022/06/30 03:06:36;;;;;;;10.90;9.20;;;;;;;19.73;92.21;96460.98;106455;1283;108904;-80
2022/06/30 03:09:08;;;;;;;10.40;9.10;;;;;;;19.84;91.86;96459.05;106365;1283;121555;-80
2022/06/30 03:11:39;;;;;;;12.00;9.70;;;;;;;19.86;91.68;96462.83;106341;1284;143119;-80
2022/06/30 03:14:11;;;;;;;11.90;10.70;;;;;;;19.95;91.78;96460.67;106558;1284;106568;-81
2022/06/30 03:16:43;;;;;;;12.20;10.40;;;;;;;20.05;91.61;96461.20;106340;1284;152768;-80
2022/06/30 03:19:15;;;;;;;11.30;10.10;;;;;;;20.13;91.31;96461.02;106611;1284;105611;-80
2022/06/30 03:21:46;;;;;;;12.10;9.90;;;;;;;20.21;91.11;96460.46;106631;1284;111474;-80
2022/06/30 03:24:18;;;;;;;11.50;9.90;;;;;;;20.27;90.87;96463.09;106671;1284;112636;-80
2022/06/30 03:26:50;;;;;;;13.50;10.10;;;;;;;20.34;90.71;96459.98;106349;1284;153460;-80
2022/06/30 03:29:22;;;;;;;12.20;9.80;;;;;;;20.39;90.46;96458.16;106448;1284;177737;-80
2022/06/30 03:31:56;;;;;;;11.10;8.90;;;;;;;20.44;90.13;96460.36;106262;1284;159670;-81
2022/06/30 03:34:27;;;;;;;9.30;8.00;;;;;;;20.52;89.94;96456.39;106387;1284;106763;-80
2022/06/30 03:37:01;;;;;;;8.60;7.60;;;;;;;20.60;89.42;96453.98;106315;1284;133416;-80
2022/06/30 03:39:32;;;;;;;11.00;8.50;;;;;;;20.66;88.96;96454.36;106255;1284;154020;-81
2022/06/30 03:42:04;;;;;;;10.70;8.90;;;;;;;20.67;88.33;96459.17;106061;1284;197500;-80
2022/06/30 03:44:37;;;;;;;10.50;9.40;;;;;;;20.67;88.17;96458.31;106321;1284;97626;-81
2022/06/30 03:47:09;;;;;;;12.80;8.60;;;;;;;20.68;87.77;96459.79;106261;1284;114210;-80
2022/06/30 03:49:41;;;;;;;11.00;7.50;;;;;;;20.70;87.50;96461.33;106341;1284;120287;-81
2022/06/30 03:52:12;;;;;;;11.00;9.90;;;;;;;20.73;87.27;96459.80;106392;1284;137103;-81
2022/06/30 03:54:44;;;;;;;10.60;9.50;;;;;;;20.82;87.77;96460.00;106380;1284;108817;-81
2022/06/30 03:57:17;;;;;;;10.90;9.60;;;;;;;20.94;87.80;96455.58;106460;1284;123831;-81
2022/06/30 03:59:48;;;;;;;10.80;9.70;;;;;;;21.04;87.60;96458.30;106716;1284;123369;-81
2022/06/30 04:02:20;;;;;;;13.00;9.90;;;;;;;21.14;87.29;96460.75;104793;1284;2201747;-81
2022/06/30 04:04:52;;;;;;;12.00;10.30;;;;;;;21.21;87.06;96459.07;106253;1284;137204;-81
2022/06/30 04:07:24;;;;;;;11.10;9.90;;;;;;;21.28;86.86;96463.13;104983;1281;2039900;-81
2022/06/30 04:09:58;;;;;;;12.30;10.30;;;;;;;21.38;86.54;96464.81;106281;1284;128816;-81
2022/06/30 04:12:29;;;;;;;12.70;10.00;;;;;;;21.49;86.21;96464.35;106224;1284;124096;-81
2022/06/30 04:15:01;;;;;;;10.90;9.80;;;;;;;21.62;86.21;96466.11;106403;1284;111370;-81
2022/06/30 04:17:34;;;;;;;11.90;9.90;;;;;;;21.79;85.72;96464.08;106335;1284;140997;-80
2022/06/30 04:20:15;;;;;;;11.90;9.50;;;;;;;21.94;84.96;96466.77;106428;1284;105008;-81
2022/06/30 04:22:50;;;;;;;11.40;9.60;;;;;;;22.05;84.18;96468.93;105935;1284;1248680;-80
2022/06/30 04:25:22;;;;;;;9.60;8.70;;;;;;;22.12;83.41;96468.16;106933;1283;61775;-81
2022/06/30 04:27:59;;;;;;;11.30;9.20;;;;;;;22.14;82.65;96466.83;106606;1284;151293;-81
2022/06/30 04:33:21;;;;;;;9.70;8.70;;;;;;;22.37;81.98;96468.10;105550;1282;1797271;-81
2022/06/30 04:35:55;;;;;;;10.50;8.50;;;;;;;22.50;81.38;96471.19;106930;1281;56190;-81
2022/06/30 04:38:27;;;;;;;10.60;8.20;;;;;;;22.61;80.69;96467.91;106681;1284;155433;-81
2022/06/30 04:44:01;;;;;;;;;;;;;;;22.76;79.28;96466.48;106657;1284;160467;-81
2022/06/30 04:46:33;;;;;;;10.80;8.20;;;;;;;22.85;78.69;96465.20;105542;1281;1774675;-81
2022/06/30 04:49:06;;;;;;;11.10;8.80;;;;;;;22.92;78.12;96465.60;106796;1284;123970;-80
2022/06/30 04:51:37;;;;;;;11.70;8.80;;;;;;;22.93;77.31;96468.79;106920;1281;75362;-81
2022/06/30 04:54:08;;;;;;;11.50;8.60;;;;;;;22.92;77.11;96472.25;106727;1284;127969;-81
2022/06/30 04:56:40;;;;;;;10.20;8.70;;;;;;;22.94;76.48;96474.60;106978;1281;33548;-81
2022/06/30 04:59:11;;;;;;;11.90;8.50;;;;;;;23.04;76.76;96475.55;106723;1284;116697;-81
2022/06/30 05:01:43;;;;;;;8.60;7.80;;;;;;;23.15;76.05;96471.61;105538;1284;1778530;-81
2022/06/30 05:04:14;;;;;;;11.50;9.00;;;;;;;23.16;75.26;96478.36;106869;1282;94977;-81
2022/06/30 05:06:46;;;;;;;10.40;9.30;;;;;;;23.28;75.51;96473.52;106788;1284;130008;-81
2022/06/30 05:09:19;;;;;;;12.30;8.40;;;;;;;23.44;75.43;96477.31;106982;1284;37818;-80
2022/06/30 05:11:51;;;;;;;10.50;7.70;;;;;;;23.70;74.82;96476.86;106651;1282;107592;-80
2022/06/30 05:14:22;;;;;;;10.70;8.80;;;;;;;24.02;74.37;96475.03;106906;1284;32752;-80
2022/06/30 05:16:54;;;;;;;10.60;9.20;;;;;;;24.39;74.31;96474.46;106871;1284;59871;-80
2022/06/30 05:19:25;;;;;;;10.60;8.40;;;;;;;24.73;72.65;96478.69;106872;1284;38216;-80
2022/06/30 05:21:56;;;;;;;10.50;9.50;;;;;;;25.08;72.00;96477.15;106734;1284;95981;-80
2022/06/30 05:27:17;;;;;;;10.30;9.00;;;;;;;27.21;70.26;96468.05;106865;1283;117161;-81
2022/06/30 05:29:48;;;;;;;8.50;7.80;;;;;;;29.15;66.70;96471.66;106956;1284;36332;-80
2022/06/30 05:32:20;;;;;;;10.30;7.40;;;;;;;30.55;62.87;96467.11;106621;1284;155647;-81
2022/06/30 05:34:51;;;;;;;10.60;7.30;;;;;;;32.24;61.40;96473.27;106955;1284;30201;-81
2022/06/30 05:37:24;;;;;;;8.50;7.10;;;;;;;33.83;56.91;96478.27;106661;1284;181354;-81
2022/06/30 05:39:57;;;;;;;9.40;7.80;;;;;;;34.66;52.57;96479.56;106777;1284;129772;-81
2022/06/30 05:42:29;;;;;;;9.30;7.20;;;;;;;34.84;50.02;96476.34;106872;1284;70838;-81
2022/06/30 05:45:01;;;;;;;8.70;6.60;;;;;;;35.26;48.58;96475.24;106793;1282;82578;-81
2022/06/30 05:47:32;;;;;;;9.70;6.90;;;;;;;36.00;47.79;96474.31;106854;1284;111172;-81
2022/06/30 05:50:04;;;;;;;8.70;7.00;;;;;;;36.47;43.48;96472.67;106673;1284;151683;-81
2022/06/30 05:52:35;;;;;;;7.80;6.80;;;;;;;36.25;42.79;96482.17;106922;1284;32653;-81
2022/06/30 05:55:08;;;;;;;7.40;6.30;;;;;;;36.38;42.78;96479.55;106672;1284;102193;-81
2022/06/30 05:57:54;;;;;;;7.20;6.30;;;;;;;36.74;41.47;96481.77;106952;1281;58024;-81
2022/06/30 06:00:27;;;;;;;7.40;6.00;;;;;;;36.90;40.46;96483.36;106886;1281;36273;-81
2022/06/30 06:02:59;;;;;;;6.90;6.20;;;;;;;36.71;38.59;96481.73;106780;1284;80621;-81
2022/06/30 06:05:31;;;;;;;8.00;6.30;;;;;;;36.33;39.72;96482.52;106916;1281;38465;-81
2022/06/30 06:08:08;;;;;;;6.60;5.70;;;;;;;36.72;39.64;96481.37;106574;1284;115838;-81
2022/06/30 06:10:40;;;;;;;7.50;5.80;;;;;;;37.28;38.31;96478.90;106952;1284;35265;-81
2022/06/30 06:13:13;;;;;;;6.30;5.60;;;;;;;37.28;37.25;96478.51;106735;1284;82469;-81
2022/06/30 06:15:45;;;;;;;6.20;5.60;;;;;;;37.19;36.89;96483.54;106903;1281;64927;-81
2022/06/30 06:18:17;;;;;;;8.10;5.60;;;;;;;37.34;36.97;96485.40;106811;1282;129147;-81
2022/06/30 06:20:48;;;;;;;7.40;5.60;;;;;;;37.87;36.35;96492.66;106993;1281;31786;-82
2022/06/30 06:23:20;;;;;;;6.20;5.60;;;;;;;38.48;35.90;96491.71;106684;1284;164094;-82
2022/06/30 06:25:52;;;;;;;5.20;4.80;;;;;;;39.27;35.18;96488.61;106633;1283;143275;-81
2022/06/30 06:31:13;;;;;;;6.10;5.50;;;;;;;39.75;33.45;96488.92;106718;1284;140831;-82
2022/06/30 06:33:46;;;;;;;6.60;5.20;;;;;;;39.91;33.25;96488.73;106999;1281;49281;-81
2022/06/30 06:36:17;;;;;;;6.90;4.60;;;;;;;40.43;33.40;96492.96;106717;1281;103320;-81
2022/06/30 06:38:49;;;;;;;6.90;5.30;;;;;;;41.06;32.63;96492.73;106954;1282;35264;-81
2022/06/30 06:41:21;;;;;;;5.50;4.70;;;;;;;42.24;32.33;96495.96;106754;1282;87783;-81
2022/06/30 06:43:54;;;;;;;5.40;4.40;;;;;;;42.74;30.40;96496.60;106890;1283;53911;-82
2022/06/30 06:46:28;;;;;;;6.60;4.60;;;;;;;42.56;30.54;96498.94;106696;1284;115183;-82
2022/06/30 06:49:02;;;;;;;7.70;4.90;;;;;;;42.43;29.28;96499.97;106946;1281;61068;-81
2022/06/30 06:51:34;;;;;;;5.30;4.20;;;;;;;42.55;30.72;96499.42;106746;1283;100318;-82
2022/06/30 06:54:06;;;;;;;5.90;4.50;;;;;;;44.13;30.98;96497.92;106937;1282;36139;-82
2022/06/30 06:56:37;;;;;;;4.70;4.10;;;;;;;45.61;29.69;96492.63;106612;1284;78581;-82
2022/06/30 06:59:09;;;;;;;6.30;4.20;;;;;;;46.72;28.43;96487.81;106722;1281;132967;-81
2022/06/30 07:01:41;;;;;;;6.30;4.50;;;;;;;47.15;27.35;96493.10;106785;1281;119037;-82
2022/06/30 07:04:15;;;;;;;4.90;4.00;;;;;;;47.75;27.25;96492.33;106826;1284;46912;-82
2022/06/30 07:06:48;;;;;;;6.10;3.90;;;;;;;48.38;25.80;96491.66;106766;1284;112060;-82
2022/06/30 07:09:21;;;;;;;4.60;4.20;;;;;;;48.07;24.32;96493.98;106934;1281;38286;-82
2022/06/30 07:11:53;;;;;;;4.10;3.60;;;;;;;46.92;23.71;96495.84;106742;1283;124667;-82
2022/06/30 07:14:25;;;;;;;4.80;3.60;;;;;;;45.43;23.47;96497.16;106971;1281;29776;-82
2022/06/30 07:16:59;;;;;;;4.20;3.80;;;;;;;45.27;25.17;96495.84;106902;1284;54447;-82
2022/06/30 07:19:32;;;;;;;6.10;4.00;;;;;;;46.50;25.32;96496.12;106876;1282;82974;-82
2022/06/30 07:22:05;;;;;;;7.40;4.10;;;;;;;46.66;24.39;96497.73;106932;1282;34348;-82
2022/06/30 07:24:37;;;;;;;7.50;3.70;;;;;;;47.37;24.96;96502.70;106367;1284;109854;-82
2022/06/30 07:27:12;;;;;;;5.50;3.70;;;;;;;48.76;24.42;96501.95;106783;1283;123091;-82
2022/06/30 07:29:44;;;;;;;6.70;3.90;;;;;;;50.08;23.23;96501.55;106757;1284;79667;-82
2022/06/30 07:32:16;;;;;;;7.60;4.20;;;;;;;49.95;22.01;96497.41;106878;1284;89197;-81
2022/06/30 07:34:47;;;;;;;5.20;4.00;;;;;;;50.11;22.31;96492.60;106946;1284;45285;-82
2022/06/30 07:37:45;;;;;;;4.40;3.80;;;;;;;50.57;22.33;96497.88;106939;1283;83800;-82
2022/06/30 07:40:34;;;;;;;4.90;3.80;;;;;;;51.63;21.60;96494.56;106907;1284;37201;-82
2022/06/30 07:43:06;;;;;;;5.90;4.50;;;;;;;51.56;21.04;96492.45;106791;1282;109826;-82
2022/06/30 07:45:38;;;;;;;5.10;4.60;;;;;;;51.03;20.05;96488.73;106926;1284;67345;-82
2022/06/30 07:48:11;;;;;;;6.30;4.80;;;;;;;48.57;19.92;96492.09;106771;1282;110977;-82
2022/06/30 07:50:48;;;;;;;6.80;4.60;;;;;;;46.33;22.00;96485.29;106976;1282;31738;-82
2022/06/30 07:53:26;;;;;;;6.00;4.50;;;;;;;45.46;23.77;96482.02;106443;1284;107579;-82
2022/06/30 07:55:58;;;;;;;5.90;4.40;;;;;;;46.83;23.62;96485.31;106513;1281;87106;-82
2022/06/30 07:58:36;;;;;;;4.90;4.50;;;;;;;46.57;21.80;96483.92;106829;1283;72719;-82
2022/06/30 08:01:11;;;;;;;5.50;4.70;;;;;;;45.04;23.10;96481.57;106705;1284;32743;-82
2022/06/30 08:03:46;;;;;;;6.50;5.00;;;;;;;44.20;24.30;96481.76;106553;1284;85613;-82
2022/06/30 08:06:19;;;;;;;5.50;4.60;;;;;;;43.59;25.32;96481.77;106815;1284;59029;-82
2022/06/30 08:08:52;;;;;;;7.80;5.20;;;;;;;44.10;25.40;96482.91;106701;1284;118618;-82
2022/06/30 08:11:24;;;;;;;6.60;4.60;;;;;;;43.96;24.52;96481.20;106635;1284;42654;-82
2022/06/30 08:13:56;;;;;;;5.00;4.50;;;;;;;43.82;25.55;96485.27;106739;1283;95358;-82
2022/06/30 08:16:27;;;;;;;6.10;4.70;;;;;;;44.20;25.49;96484.27;106887;1283;31911;-82
2022/06/30 08:19:00;;;;;;;6.10;4.60;;;;;;;45.49;25.57;96480.73;106754;1284;79852;-82
2022/06/30 08:21:31;;;;;;;5.80;4.50;;;;;;;46.02;24.18;96485.74;106881;1284;29789;-82
2022/06/30 08:24:03;;;;;;;6.70;4.60;;;;;;;46.23;24.46;96484.18;106538;1284;106419;-82
2022/06/30 08:26:35;;;;;;;4.70;4.30;;;;;;;46.28;22.42;96485.23;106876;1283;60561;-82
2022/06/30 08:29:08;;;;;;;6.20;5.00;;;;;;;45.27;23.44;96486.42;106376;1284;160440;-82
2022/06/30 08:31:40;;;;;;;5.70;5.10;;;;;;;45.86;24.45;96487.83;106898;1284;32250;-82
2022/06/30 08:34:11;;;;;;;5.80;4.80;;;;;;;46.76;22.98;96486.98;106689;1284;132496;-82
2022/06/30 08:36:43;;;;;;;5.80;5.20;;;;;;;45.28;22.52;96492.40;106902;1284;37798;-82
2022/06/30 08:42:07;;;;;;;5.30;4.80;;;;;;;46.06;23.76;96486.94;106881;1284;32947;-82
2022/06/30 08:44:39;;;;;;;5.10;4.60;;;;;;;46.77;24.28;96488.52;106791;1284;99625;-82
2022/06/30 08:47:12;;;;;;;5.70;4.90;;;;;;;48.23;23.43;96493.67;106874;1283;33172;-82
2022/06/30 08:49:44;;;;;;;6.60;4.50;;;;;;;49.26;21.83;96490.40;106626;1284;137272;-82
2022/06/30 08:52:17;;;;;;;4.90;4.40;;;;;;;47.79;21.26;96492.89;106681;1284;36385;-82
2022/06/30 08:54:51;;;;;;;7.30;4.50;;;;;;;47.09;22.92;96495.04;106782;1282;104093;-82
2022/06/30 08:57:26;;;;;;;4.80;4.40;;;;;;;46.17;23.48;96488.35;106868;1284;36957;-82
2022/06/30 08:59:58;;;;;;;6.20;4.50;;;;;;;44.81;24.10;96486.02;106736;1284;96068;-82
2022/06/30 09:02:31;;;;;;;6.60;4.70;;;;;;;43.27;24.61;96481.95;106895;1284;33285;-82
2022/06/30 09:05:03;;;;;;;5.60;4.60;;;;;;;41.96;26.20;96475.67;105261;1284;1905559;-82
2022/06/30 09:07:35;;;;;;;8.60;4.80;;;;;;;41.20;26.93;96473.67;106714;1284;59915;-81
2022/06/30 09:10:08;;;;;;;7.60;4.50;;;;;;;40.86;27.37;96473.77;106687;1284;68066;-81
2022/06/30 09:12:41;;;;;;;7.40;5.50;;;;;;;40.68;27.42;96474.14;106710;1284;109267;-82
2022/06/30 09:15:17;;;;;;;5.50;4.90;;;;;;;39.71;27.55;96472.86;106833;1284;73735;-81
2022/06/30 09:17:50;;;;;;;6.80;5.20;;;;;;;38.95;28.93;96473.20;106710;1284;186875;-81
2022/06/30 09:20:32;;;;;;;6.40;4.90;;;;;;;38.79;28.92;96471.33;106690;1284;44120;-81
2022/06/30 09:23:21;;;;;;;9.20;5.10;;;;;;;37.96;29.22;96470.02;106809;1283;93853;-81
2022/06/30 09:25:55;;;;;;;6.20;5.40;;;;;;;37.52;30.17;96472.80;106750;1284;40218;-80
2022/06/30 09:28:45;;;;;;;6.70;5.40;;;;;;;37.13;30.09;96470.19;106591;1284;123907;-81
2022/06/30 09:31:35;;;;;;;8.60;4.80;;;;;;;36.23;31.21;96471.05;106880;1284;34126;-81
2022/06/30 09:34:20;;;;;;;5.90;5.30;;;;;;;36.27;32.23;96468.08;105414;1284;1929146;-81
2022/06/30 09:36:53;;;;;;;5.20;4.50;;;;;;;36.62;32.29;96466.52;106982;1284;29678;-80
2022/06/30 09:39:25;;;;;;;5.40;4.90;;;;;;;36.88;31.61;96466.95;106868;1284;70488;-80
2022/06/30 09:41:57;;;;;;;5.80;5.20;;;;;;;36.54;31.62;96465.23;106852;1283;55712;-81
2022/06/30 09:44:28;;;;;;;5.80;4.90;;;;;;;36.56;32.49;96464.63;105435;1284;1748738;-81
2022/06/30 09:47:03;;;;;;;6.00;4.30;;;;;;;36.83;32.14;96464.05;106924;1284;69410;-80
2022/06/30 09:49:40;;;;;;;7.70;4.40;;;;;;;36.93;31.08;96462.70;106733;1283;106134;-80
2022/06/30 09:52:21;;;;;;;6.50;5.30;;;;;;;36.92;31.26;96458.50;106570;1284;87816;-80
2022/06/30 09:54:59;;;;;;;9.00;4.40;;;;;;;36.87;31.86;96457.34;106664;1283;120867;-80
2022/06/30 09:57:34;;;;;;;7.60;4.70;;;;;;;36.82;31.48;96451.20;106687;1284;105904;-80
2022/06/30 10:00:10;;;;;;;5.80;5.20;;;;;;;36.79;31.69;96450.86;106628;1284;116711;-80
2022/06/30 10:02:46;;;;;;;6.40;5.50;;;;;;;36.89;31.58;96445.60;106925;1284;34536;-81
2022/06/30 10:05:20;;;;;;;6.00;4.90;;;;;;;36.80;32.17;96441.13;106880;1281;83966;-80
2022/06/30 10:07:54;;;;;;;7.90;5.10;;;;;;;36.82;32.34;96433.46;106920;1281;35358;-80
2022/06/30 10:10:27;;;;;;;5.70;4.70;;;;;;;36.92;31.78;96432.62;106722;1281;126147;-81
2022/06/30 10:13:01;;;;;;;4.50;3.60;;;;;;;37.01;31.23;96434.73;106951;1282;33784;-80
2022/06/30 10:15:36;;;;;;;8.80;4.40;;;;;;;37.01;30.60;96436.00;106880;1283;72111;-80
2022/06/30 10:18:10;;;;;;;6.80;4.60;;;;;;;37.06;31.05;96432.41;106929;1282;34792;-81
2022/06/30 10:20:46;;;;;;;5.70;4.50;;;;;;;37.13;31.11;96433.84;106663;1284;141150;-80
2022/06/30 10:23:22;;;;;;;7.60;4.60;;;;;;;36.90;30.36;96431.48;107012;1282;34188;-80
2022/06/30 10:25:57;;;;;;;6.00;4.70;;;;;;;36.72;31.43;96431.70;105895;1281;1389847;-80
2022/06/30 10:28:32;;;;;;;10.20;4.90;;;;;;;36.70;30.07;96427.30;106655;1284;61288;-80
2022/06/30 10:31:15;;;;;;;6.20;5.00;;;;;;;36.11;31.15;96425.42;106935;1284;34806;-80
2022/06/30 10:33:58;;;;;;;7.70;5.30;;;;;;;36.03;32.00;96428.33;106836;1282;109832;-80
2022/06/30 10:36:39;;;;;;;7.10;4.80;;;;;;;36.12;32.15;96423.66;106967;1282;37140;-80
2022/06/30 10:39:23;;;;;;;7.40;5.10;;;;;;;36.28;32.33;96423.36;106775;1282;109203;-80
2022/06/30 10:41:56;;;;;;;4.90;4.40;;;;;;;36.46;31.84;96422.94;106905;1284;33539;-80
2022/06/30 10:44:29;;;;;;;8.40;4.60;;;;;;;36.51;31.66;96417.98;106689;1281;116793;-80
2022/06/30 10:47:12;;;;;;;5.40;4.50;;;;;;;36.52;31.97;96422.33;106956;1284;34337;-80
2022/06/30 10:49:59;;;;;;;6.10;4.10;;;;;;;36.30;31.13;96420.20;106875;1281;47798;-80
2022/06/30 10:52:34;;;;;;;5.30;4.70;;;;;;;36.11;30.58;96417.55;106932;1282;34851;-80
2022/06/30 10:55:09;;;;;;;7.80;4.90;;;;;;;35.94;31.00;96411.54;106776;1281;106239;-80
2022/06/30 10:58:02;;;;;;;6.20;5.10;;;;;;;35.97;31.66;96415.51;106931;1281;30661;-80
2022/06/30 11:01:00;;;;;;;7.10;4.50;;;;;;;36.11;31.68;96411.48;106898;1284;64403;-80
2022/06/30 11:04:01;;;;;;;5.30;4.30;;;;;;;36.12;31.63;96406.70;106872;1284;72426;-80
2022/06/30 11:07:07;;;;;;;4.50;4.00;;;;;;;36.23;31.12;96405.73;106620;1284;399588;-80
2022/06/30 11:10:23;;;;;;;5.50;4.20;;;;;;;36.26;30.82;96402.20;106722;1284;130725;-80
2022/06/30 11:13:10;;;;;;;7.60;4.50;;;;;;;36.15;30.82;96402.55;106962;1284;28448;-80
2022/06/30 11:16:01;;;;;;;8.60;4.80;;;;;;;36.06;31.22;96398.73;106762;1284;92084;-80
2022/06/30 11:18:38;;;;;;;6.10;4.30;;;;;;;36.14;31.84;96397.23;106927;1284;49028;-80
2022/06/30 11:21:10;;;;;;;11.40;5.10;;;;;;;36.12;31.33;96392.02;106838;1284;49261;-80
2022/06/30 11:23:48;;;;;;;6.50;4.60;;;;;;;36.00;31.99;96384.89;106852;1284;75623;-80
2022/06/30 11:29:17;;;;;;;7.90;5.40;;;;;;;35.83;31.21;96387.17;106772;1284;55197;-81
2022/06/30 11:31:50;;;;;;;7.90;5.20;;;;;;;35.50;31.99;96382.52;107005;1284;31977;-81
2022/06/30 11:34:23;;;;;;;7.40;5.10;;;;;;;35.60;32.15;96386.11;106814;1284;83913;-81
2022/06/30 11:36:58;;;;;;;5.90;4.60;;;;;;;35.77;32.53;96377.40;106918;1284;29863;-81
2022/06/30 11:39:31;;;;;;;6.70;4.90;;;;;;;35.93;32.98;96377.20;106841;1282;66605;-81
2022/06/30 11:42:11;;;;;;;6.20;5.10;;;;;;;36.10;32.54;96376.42;106860;1281;39304;-81
2022/06/30 11:44:46;;;;;;;5.70;4.90;;;;;;;36.22;32.24;96372.32;106671;1282;156210;-81
2022/06/30 11:47:20;;;;;;;7.40;5.20;;;;;;;36.35;32.36;96371.86;107009;1282;68045;-81
2022/06/30 11:49:54;;;;;;;6.70;5.20;;;;;;;36.48;32.32;96374.96;106847;1281;92151;-81
2022/06/30 11:52:34;;;;;;;5.70;5.00;;;;;;;36.55;31.61;96369.61;106863;1282;55427;-80
2022/06/30 11:55:11;;;;;;;7.10;5.10;;;;;;;36.53;31.50;96368.14;106688;1284;110406;-80
2022/06/30 11:57:45;;;;;;;7.20;4.90;;;;;;;36.50;31.68;96366.14;106980;1282;30534;-80
2022/06/30 12:00:20;;;;;;;7.00;5.40;;;;;;;36.56;31.68;96363.59;107059;1281;35736;-80
2022/06/30 12:02:55;;;;;;;8.90;4.80;;;;;;;36.54;31.03;96366.02;106695;1284;118524;-80
2022/06/30 12:05:28;;;;;;;7.80;4.70;;;;;;;36.51;31.83;96360.02;106963;1281;40312;-80
2022/06/30 12:08:00;;;;;;;6.90;4.70;;;;;;;36.67;31.62;96362.44;106663;1281;111782;-80
2022/06/30 12:10:32;;;;;;;6.50;5.40;;;;;;;36.73;31.66;96358.02;106918;1282;35366;-80